createdAt,value
2022-08-17T00:01:51.708Z,17.70
2022-08-17T00:04:21.916Z,17.69
2022-08-17T00:06:50.844Z,17.67
2022-08-17T00:09:19.532Z,17.64
2022-08-17T00:12:34.714Z,17.62
2022-08-17T00:14:38.644Z,17.57
2022-08-17T00:17:07.211Z,17.55
2022-08-17T00:19:35.562Z,17.54
2022-08-17T00:22:33.948Z,17.53
2022-08-17T00:24:55.362Z,17.53
2022-08-17T00:27:24.454Z,17.52
2022-08-17T00:29:52.826Z,17.49
2022-08-17T00:33:12.397Z,17.47
2022-08-17T00:35:11.524Z,17.43
2022-08-17T00:37:40.580Z,17.43
2022-08-17T00:40:12.314Z,17.42
2022-08-17T00:42:41.750Z,17.38
2022-08-17T00:45:12.171Z,17.38
2022-08-17T00:48:28.984Z,17.35
2022-08-17T00:51:01.053Z,17.30
2022-08-17T00:53:31.886Z,17.29
2022-08-17T00:56:03.613Z,17.26
2022-08-17T00:58:36.037Z,17.24
2022-08-17T01:01:07.134Z,17.21
2022-08-17T01:03:37.609Z,17.15
2022-08-17T01:06:08.369Z,17.11
2022-08-17T01:08:39.069Z,17.10
2022-08-17T01:11:08.473Z,17.09
2022-08-17T01:13:43.121Z,17.08
2022-08-17T01:20:22.249Z,17.03
2022-08-17T01:22:50.795Z,17.00
2022-08-17T01:25:20.949Z,16.96
2022-08-17T01:27:50.104Z,16.92
2022-08-17T01:30:58.439Z,16.88
2022-08-17T01:33:11.666Z,16.84
2022-08-17T01:35:40.485Z,16.81
2022-08-17T01:38:09.726Z,16.79
2022-08-17T01:40:43.410Z,16.77
2022-08-17T01:43:20.210Z,16.74
2022-08-17T01:46:03.591Z,16.72
2022-08-17T01:48:35.354Z,16.70
2022-08-17T01:51:06.308Z,16.69
2022-08-17T01:54:02.682Z,16.71
2022-08-17T01:56:34.511Z,16.71
2022-08-17T01:59:03.210Z,16.70
2022-08-17T02:01:34.781Z,16.69
2022-08-17T02:04:05.667Z,16.68
2022-08-17T02:06:44.903Z,16.68
2022-08-17T02:09:29.855Z,16.66
2022-08-17T02:12:04.790Z,16.65
2022-08-17T02:14:51.727Z,16.62
2022-08-17T02:17:20.082Z,16.59
2022-08-17T02:19:48.520Z,16.54
2022-08-17T02:22:18.544Z,16.50
2022-08-17T02:24:59.568Z,16.47
2022-08-17T02:27:31.040Z,16.43
2022-08-17T02:29:59.485Z,16.39
2022-08-17T02:32:28.778Z,16.38
2022-08-17T02:34:58.639Z,16.38
2022-08-17T02:37:28.719Z,16.39
2022-08-17T02:40:14.034Z,16.39
2022-08-17T02:42:44.842Z,16.39
2022-08-17T02:45:15.390Z,16.40
2022-08-17T02:47:45.253Z,16.39
2022-08-17T02:50:16.976Z,16.40
2022-08-17T02:53:02.463Z,16.40
2022-08-17T02:55:35.557Z,16.39
2022-08-17T02:58:05.124Z,16.35
2022-08-17T03:01:03.608Z,16.33
2022-08-17T03:03:32.438Z,16.30
2022-08-17T03:06:01.552Z,16.26
2022-08-17T03:08:30.744Z,16.23
2022-08-17T03:10:59.970Z,16.20
2022-08-17T03:13:28.230Z,16.20
2022-08-17T03:15:56.992Z,16.21
2022-08-17T03:18:26.355Z,16.20
2022-08-17T03:20:57.773Z,16.19
2022-08-17T03:23:27.651Z,16.17
2022-08-17T03:25:58.921Z,16.15
2022-08-17T03:28:28.653Z,16.13
2022-08-17T03:30:57.010Z,16.13
2022-08-17T03:33:25.405Z,16.13
2022-08-17T03:35:53.814Z,16.13
2022-08-17T03:38:22.191Z,16.14
2022-08-17T03:40:56.488Z,16.14
2022-08-17T03:43:31.266Z,16.15
2022-08-17T03:46:27.724Z,16.16
2022-08-17T03:49:16.339Z,16.17
2022-08-17T03:52:03.397Z,16.16
2022-08-17T03:54:50.663Z,16.16
2022-08-17T03:57:19.500Z,16.16
2022-08-17T03:59:47.997Z,16.19
2022-08-17T04:02:22.066Z,16.22
2022-08-17T04:04:51.333Z,16.25
2022-08-17T04:07:25.592Z,16.27
2022-08-17T04:10:11.931Z,16.28
2022-08-17T04:12:50.347Z,16.29
2022-08-17T04:15:19.136Z,16.33
2022-08-17T04:17:47.770Z,16.36
2022-08-17T04:20:18.245Z,16.39
2022-08-17T04:23:04.226Z,16.43
2022-08-17T04:25:35.062Z,16.47
2022-08-17T04:28:05.143Z,16.51
2022-08-17T04:30:38.698Z,16.56
2022-08-17T04:33:14.345Z,16.61
2022-08-17T04:36:22.452Z,16.69
2022-08-17T04:38:50.887Z,16.78
2022-08-17T04:41:37.899Z,16.89
2022-08-17T04:44:12.092Z,17.01
2022-08-17T04:46:40.442Z,17.10
2022-08-17T04:49:11.230Z,17.23
2022-08-17T04:51:54.442Z,17.37
2022-08-17T04:54:25.280Z,17.49
2022-08-17T04:56:53.620Z,17.60
2022-08-17T04:59:22.760Z,17.69
2022-08-17T05:01:52.164Z,17.76
2022-08-17T05:08:22.374Z,17.90
2022-08-17T05:10:50.921Z,17.96
2022-08-17T05:13:27.017Z,18.01
2022-08-17T05:15:59.007Z,18.06
2022-08-17T05:18:28.809Z,18.10
2022-08-17T05:20:57.462Z,18.13
2022-08-17T05:23:35.004Z,18.12
2022-08-17T05:26:25.504Z,18.15
2022-08-17T05:28:59.836Z,18.19
2022-08-17T05:31:30.121Z,18.22
2022-08-17T05:33:59.230Z,18.24
2022-08-17T05:36:42.300Z,18.27
2022-08-17T05:39:56.917Z,18.31
2022-08-17T05:47:06.587Z,18.33
2022-08-17T05:54:17.860Z,18.42
2022-08-17T06:01:28.033Z,18.65
2022-08-17T06:04:02.558Z,18.74
2022-08-17T06:11:02.860Z,19.00
2022-08-17T06:17:59.336Z,19.41
2022-08-17T06:28:47.986Z,20.32
2022-08-17T06:33:28.988Z,20.83
2022-08-17T06:36:17.678Z,21.39
2022-08-17T06:43:19.334Z,22.30
2022-08-17T06:45:54.446Z,22.69
2022-08-17T06:48:59.514Z,23.10
2022-08-17T06:56:00.672Z,24.09
2022-08-17T06:58:31.625Z,24.44
2022-08-17T07:08:12.489Z,24.90
2022-08-17T07:23:48.543Z,26.06
2022-08-17T07:26:16.850Z,26.03
2022-08-17T07:28:45.566Z,25.98
2022-08-17T07:31:17.422Z,25.89
2022-08-17T07:38:26.869Z,25.77
2022-08-17T07:41:02.256Z,25.70
2022-08-17T07:43:52.726Z,25.73
2022-08-17T07:46:46.535Z,25.77
2022-08-17T07:49:14.786Z,25.88
2022-08-17T07:51:43.488Z,25.99
2022-08-17T07:55:22.451Z,26.09
2022-08-17T07:57:57.648Z,26.26
2022-08-17T08:01:08.515Z,26.40
2022-08-17T08:03:52.393Z,26.47
2022-08-17T08:06:24.862Z,26.49
2022-08-17T08:08:56.711Z,26.54
2022-08-17T08:11:31.050Z,26.64
2022-08-17T08:18:04.665Z,27.20
2022-08-17T08:21:20.332Z,27.41
2022-08-17T08:25:30.271Z,27.93
2022-08-17T08:32:28.219Z,28.87
2022-08-17T08:35:08.706Z,29.04
2022-08-17T08:47:27.319Z,29.73
2022-08-17T08:59:57.727Z,30.55
2022-08-17T09:08:31.198Z,31.20
2022-08-17T09:19:50.368Z,32.44
2022-08-17T09:22:31.789Z,32.59
2022-08-17T09:29:57.930Z,32.61
2022-08-17T09:46:11.884Z,32.10
2022-08-17T09:48:59.156Z,32.12
2022-08-17T09:57:30.682Z,32.49
2022-08-17T10:07:56.500Z,31.66
2022-08-17T10:10:52.474Z,31.52
2022-08-17T10:17:43.341Z,32.10
2022-08-17T10:25:24.820Z,32.74
2022-08-17T10:28:05.517Z,32.97
2022-08-17T10:42:50.350Z,33.79
2022-08-17T10:55:20.660Z,33.92
2022-08-17T11:07:02.316Z,34.00
2022-08-17T11:09:51.284Z,33.74
2022-08-17T11:25:55.715Z,33.18
2022-08-17T11:29:05.428Z,33.37
2022-08-17T11:32:48.807Z,33.50
2022-08-17T11:36:59.026Z,33.60
2022-08-17T11:44:13.696Z,34.06
2022-08-17T11:51:34.717Z,33.79
2022-08-17T11:58:40.219Z,34.09
2022-08-17T12:01:13.745Z,34.12
2022-08-17T12:04:38.561Z,34.25
2022-08-17T12:23:23.361Z,34.39
2022-08-17T12:30:32.508Z,34.29
2022-08-17T12:42:29.543Z,34.07
2022-08-17T12:45:39.977Z,34.07
2022-08-17T12:48:14.003Z,34.16
2022-08-17T12:50:58.846Z,34.26
2022-08-17T12:55:40.592Z,34.38
2022-08-17T13:04:29.717Z,33.45
2022-08-17T13:11:29.264Z,33.78
2022-08-17T13:15:34.960Z,33.69
2022-08-17T13:19:43.915Z,33.44
2022-08-17T13:23:19.777Z,33.30
2022-08-17T13:25:56.420Z,33.30
2022-08-17T13:28:35.478Z,33.43
2022-08-17T13:31:24.580Z,33.48
2022-08-17T13:33:53.026Z,33.53
2022-08-17T13:36:30.627Z,33.57
2022-08-17T13:43:09.626Z,33.65
2022-08-17T13:54:41.418Z,33.46
2022-08-17T14:01:46.569Z,33.21
2022-08-17T14:04:24.493Z,33.10
2022-08-17T14:08:06.406Z,32.85
2022-08-17T14:10:36.819Z,32.62
2022-08-17T14:13:06.510Z,32.51
2022-08-17T14:15:55.245Z,32.33
2022-08-17T14:18:35.726Z,32.16
2022-08-17T14:21:13.362Z,32.18
2022-08-17T14:28:11.116Z,31.77
2022-08-17T14:30:41.209Z,31.69
2022-08-17T14:33:10.064Z,31.68
2022-08-17T14:35:38.393Z,31.71
2022-08-17T14:38:06.746Z,31.61
2022-08-17T14:40:36.220Z,31.46
2022-08-17T14:43:04.655Z,31.29
2022-08-17T14:45:33.572Z,31.14
2022-08-17T14:48:07.855Z,31.08
2022-08-17T14:50:40.386Z,31.16
2022-08-17T14:53:11.683Z,31.17
2022-08-17T14:55:40.726Z,31.12
2022-08-17T14:58:09.554Z,30.96
2022-08-17T15:00:39.661Z,30.78
2022-08-17T15:03:08.043Z,30.56
2022-08-17T15:05:38.296Z,30.35
2022-08-17T15:08:07.283Z,30.17
2022-08-17T15:10:36.701Z,29.98
2022-08-17T15:13:10.948Z,29.89
2022-08-17T15:15:58.789Z,29.80
2022-08-17T15:18:59.042Z,29.81
2022-08-17T15:21:27.401Z,29.86
2022-08-17T15:23:55.792Z,29.88
2022-08-17T15:26:26.396Z,29.87
2022-08-17T15:28:56.329Z,29.86
2022-08-17T15:31:31.609Z,29.82
2022-08-17T15:34:00.878Z,29.78
2022-08-17T15:36:29.203Z,29.76
2022-08-17T15:38:59.165Z,29.64
2022-08-17T15:41:28.472Z,29.48
2022-08-17T15:43:57.219Z,29.30
2022-08-17T15:46:26.820Z,29.06
2022-08-17T15:49:00.339Z,28.66
2022-08-17T15:51:33.856Z,28.08
2022-08-17T15:54:18.750Z,27.61
2022-08-17T15:56:51.099Z,27.13
2022-08-17T15:59:19.565Z,26.72
2022-08-17T16:03:14.560Z,26.16
2022-08-17T16:04:37.030Z,25.63
2022-08-17T16:07:09.206Z,25.09
2022-08-17T16:09:38.700Z,24.56
2022-08-17T16:15:24.902Z,23.70
2022-08-17T16:17:53.583Z,23.43
2022-08-17T16:20:22.405Z,23.19
2022-08-17T16:22:51.525Z,22.98
2022-08-17T16:25:47.110Z,22.89
2022-08-17T16:28:15.054Z,22.83
2022-08-17T16:30:44.695Z,22.78
2022-08-17T16:33:13.807Z,22.73
2022-08-17T16:35:42.253Z,22.66
2022-08-17T16:38:11.142Z,22.57
2022-08-17T16:40:40.674Z,22.51
2022-08-17T16:43:10.825Z,22.46
2022-08-17T16:45:40.969Z,22.47
2022-08-17T16:48:10.313Z,22.49
2022-08-17T16:50:39.103Z,22.50
2022-08-17T16:53:19.611Z,22.49
2022-08-17T16:55:52.169Z,22.47
2022-08-17T16:58:20.574Z,22.44
2022-08-17T17:00:49.163Z,22.41
2022-08-17T17:03:21.979Z,22.35
2022-08-17T17:06:01.921Z,22.31
2022-08-17T17:09:00.594Z,22.27
2022-08-17T17:11:44.446Z,22.22
2022-08-17T17:14:30.868Z,22.09
2022-08-17T17:16:59.128Z,21.98
2022-08-17T17:19:38.647Z,21.89
2022-08-17T17:22:22.963Z,21.77
2022-08-17T17:25:26.972Z,21.66
2022-08-17T17:28:32.015Z,21.52
2022-08-17T17:31:16.374Z,21.40
2022-08-17T17:33:56.605Z,21.29
2022-08-17T17:36:48.371Z,21.23
2022-08-17T17:39:44.136Z,21.14
2022-08-17T17:42:19.943Z,21.07
2022-08-17T17:45:32.796Z,20.99
2022-08-17T17:48:03.044Z,20.95
2022-08-17T17:51:01.859Z,20.88
2022-08-17T17:54:05.890Z,20.81
2022-08-17T18:00:14.748Z,20.75
2022-08-17T18:02:58.060Z,20.74
2022-08-17T18:05:51.264Z,20.72
2022-08-17T18:08:34.128Z,20.71
2022-08-17T18:11:25.161Z,20.69
2022-08-17T18:14:24.253Z,20.69
2022-08-17T18:16:58.662Z,20.67
2022-08-17T18:19:31.462Z,20.67
2022-08-17T18:22:06.759Z,20.69
2022-08-17T18:24:39.078Z,20.70
2022-08-17T18:27:36.395Z,20.71
2022-08-17T18:30:13.741Z,20.71
2022-08-17T18:32:43.839Z,20.71
2022-08-17T18:35:13.634Z,20.70
2022-08-17T18:37:53.371Z,20.71
2022-08-17T18:40:30.209Z,20.72
2022-08-17T18:43:43.994Z,20.73
2022-08-17T18:46:36.207Z,20.75
2022-08-17T18:49:20.520Z,20.77
2022-08-17T18:51:48.897Z,20.81
2022-08-17T18:54:25.135Z,20.86
2022-08-17T18:56:59.283Z,20.90
2022-08-17T18:59:42.300Z,20.92
2022-08-17T19:02:27.263Z,20.94
2022-08-17T19:05:33.247Z,20.95
2022-08-17T19:08:33.782Z,20.96
2022-08-17T19:11:10.298Z,20.98
2022-08-17T19:14:10.549Z,20.97
2022-08-17T19:17:25.647Z,20.96
2022-08-17T19:20:21.686Z,20.95
2022-08-17T19:23:16.780Z,20.93
2022-08-17T19:25:50.354Z,20.93
2022-08-17T19:28:27.526Z,20.93
2022-08-17T19:31:04.132Z,20.92
2022-08-17T19:33:34.770Z,20.90
2022-08-17T19:36:44.527Z,20.88
2022-08-17T19:39:16.435Z,20.87
2022-08-17T19:41:55.031Z,20.86
2022-08-17T19:45:03.925Z,20.85
2022-08-17T19:48:04.534Z,20.85
2022-08-17T19:50:55.365Z,20.85
2022-08-17T19:53:47.435Z,20.85
2022-08-17T19:56:42.649Z,20.86
2022-08-17T19:59:49.175Z,20.87
2022-08-17T20:02:20.588Z,20.87
2022-08-17T20:04:51.272Z,20.89
2022-08-17T20:07:38.661Z,20.89
2022-08-17T20:10:57.388Z,20.91
2022-08-17T20:13:53.756Z,20.89
2022-08-17T20:16:26.790Z,20.90
2022-08-17T20:19:00.681Z,20.89
2022-08-17T20:26:12.311Z,20.91
2022-08-17T20:29:31.948Z,20.90
2022-08-17T20:36:19.751Z,20.87
2022-08-17T20:39:00.231Z,20.87
2022-08-17T20:41:29.802Z,20.86
2022-08-17T20:43:58.967Z,20.84
2022-08-17T20:46:33.438Z,20.84
2022-08-17T20:49:52.411Z,20.82
2022-08-17T20:52:57.557Z,20.82
2022-08-17T20:55:51.929Z,20.82
2022-08-17T20:58:30.884Z,20.82
2022-08-17T21:01:01.092Z,20.81
2022-08-17T21:03:50.079Z,20.79
2022-08-17T21:06:20.841Z,20.77
2022-08-17T21:08:55.384Z,20.76
2022-08-17T21:12:02.835Z,20.74
2022-08-17T21:14:37.565Z,20.70
2022-08-17T21:17:24.644Z,20.66
2022-08-17T21:20:32.328Z,20.61
2022-08-17T21:23:01.199Z,20.59
2022-08-17T21:26:03.431Z,20.58
2022-08-17T21:29:30.349Z,20.58
2022-08-17T21:32:00.660Z,20.57
2022-08-17T21:34:37.967Z,20.57
2022-08-17T21:37:42.449Z,20.58
2022-08-17T21:40:10.751Z,20.57
2022-08-17T21:43:05.443Z,20.57
2022-08-17T21:45:37.439Z,20.56
2022-08-17T21:48:07.917Z,20.57
2022-08-17T21:50:36.290Z,20.59
2022-08-17T21:53:05.865Z,20.58
2022-08-17T21:55:36.680Z,20.58
2022-08-17T21:58:28.345Z,20.59
2022-08-17T22:01:21.194Z,20.59
2022-08-17T22:04:27.282Z,20.60
2022-08-17T22:06:58.352Z,20.60
2022-08-17T22:09:31.941Z,20.62
2022-08-17T22:12:09.349Z,20.62
2022-08-17T22:14:53.003Z,20.63
2022-08-17T22:17:29.496Z,20.62
2022-08-17T22:24:18.165Z,20.56
2022-08-17T22:27:07.149Z,20.55
2022-08-17T22:29:58.152Z,20.51
2022-08-17T22:32:32.714Z,20.48
2022-08-17T22:35:39.317Z,20.45
2022-08-17T22:38:19.582Z,20.42
2022-08-17T22:41:14.105Z,20.41
2022-08-17T22:43:43.760Z,20.39
2022-08-17T22:46:15.186Z,20.37
2022-08-17T22:48:53.501Z,20.35
2022-08-17T22:51:26.447Z,20.31
2022-08-17T22:54:21.115Z,20.29
2022-08-17T22:57:21.062Z,20.27
2022-08-17T22:59:56.020Z,20.22
2022-08-17T23:02:33.042Z,20.22
2022-08-17T23:05:13.206Z,20.22
2022-08-17T23:07:43.326Z,20.23
2022-08-17T23:10:13.778Z,20.26
2022-08-17T23:12:42.632Z,20.27
2022-08-17T23:15:15.303Z,20.30
2022-08-17T23:17:49.566Z,20.33
2022-08-17T23:20:18.185Z,20.34
2022-08-17T23:22:51.812Z,20.36
2022-08-17T23:25:30.110Z,20.37
2022-08-17T23:28:01.817Z,20.38
2022-08-17T23:30:33.566Z,20.39
2022-08-17T23:33:07.723Z,20.38
2022-08-17T23:35:39.601Z,20.37
2022-08-17T23:38:11.473Z,20.37
2022-08-17T23:40:40.866Z,20.35
2022-08-17T23:43:24.138Z,20.31
2022-08-17T23:45:59.894Z,20.28
2022-08-17T23:48:36.089Z,20.20
2022-08-17T23:51:12.603Z,20.12
2022-08-17T23:54:29.568Z,19.98
2022-08-17T23:56:57.916Z,19.86
2022-08-17T23:59:27.778Z,19.74
